Time;durP1;ratioP1;P1;durP2;ratioP2;P2;SDS_P1;SDS_P2;PMS_P1;PMS_P2;Temp;Humidity;BMP_temperature;BMP_pressure;BME280_temperature;BME280_humidity;BME280_pressure;Samples;Min_cycle;Max_cycle;Signal;HPM_P1;HPM_P2
2022/01/10 00:02:16;;;;;;;16.05;3.75;;;;;;;;;;5022561;28;20117;-54
2022/01/10 00:04:42;;;;;;;10.52;3.67;;;;;;;;;;5021593;28;20058;-51
2022/01/10 00:07:10;;;;;;;9.45;2.90;;;;;;;;;;5025763;28;20045;-57
2022/01/10 00:09:38;;;;;;;11.75;4.03;;;;;;;;;;5021067;28;20060;-55
2022/01/10 00:12:05;;;;;;;16.23;3.50;;;;;;;;;;5026464;28;20053;-58
2022/01/10 00:14:31;;;;;;;8.93;3.60;;;;;;;;;;5011535;28;20307;-60
2022/01/10 00:16:58;;;;;;;10.45;3.20;;;;;;;;;;5026167;28;20144;-59
2022/01/10 00:19:25;;;;;;;8.85;3.20;;;;;;;;;;5022427;28;20152;-59
2022/01/10 00:21:51;;;;;;;10.52;3.45;;;;;;;;;;5023567;28;20049;-57
2022/01/10 00:24:18;;;;;;;11.23;3.15;;;;;;;;;;5026088;28;20066;-59
2022/01/10 00:26:46;;;;;;;11.18;3.60;;;;;;;;;;5021966;28;20126;-60
2022/01/10 00:29:13;;;;;;;10.55;3.28;;;;;;;;;;5027603;28;20593;-60
2022/01/10 00:31:39;;;;;;;9.63;3.22;;;;;;;;;;5014089;28;20060;-59
2022/01/10 00:34:06;;;;;;;10.80;3.42;;;;;;;;;;5027919;28;20081;-60
2022/01/10 00:36:32;;;;;;;7.55;3.28;;;;;;;;;;5021451;28;20057;-56
2022/01/10 00:38:59;;;;;;;10.38;2.97;;;;;;;;;;5024886;28;20148;-57
2022/01/10 00:41:25;;;;;;;10.55;3.30;;;;;;;;;;5025752;28;20046;-58
2022/01/10 00:43:53;;;;;;;12.88;3.53;;;;;;;;;;5020720;28;20060;-57
2022/01/10 00:46:20;;;;;;;12.18;3.35;;;;;;;;;;5017001;28;20111;-53
2022/01/10 00:48:48;;;;;;;12.43;3.25;;;;;;;;;;5020763;28;20068;-59
2022/01/10 00:51:15;;;;;;;;;;;;;;;;;;5025941;28;20049;-58
2022/01/10 00:53:43;;;;;;;8.48;3.03;;;;;;;;;;5020430;28;19929;-56
2022/01/10 00:56:09;;;;;;;15.45;5.85;;;;;;;;;;5025097;28;20057;-54
2022/01/10 00:58:37;;;;;;;15.10;5.15;;;;;;;;;;5020683;28;20064;-58
2022/01/10 01:01:05;;;;;;;18.10;5.55;;;;;;;;;;5025370;28;20054;-54
2022/01/10 01:03:31;;;;;;;11.05;4.38;;;;;;;;;;5031267;28;20073;-55
2022/01/10 01:05:59;;;;;;;13.90;4.23;;;;;;;;;;5024006;28;20053;-58
2022/01/10 01:08:28;;;;;;;14.88;3.80;;;;;;;;;;5004045;28;20049;-57
2022/01/10 01:13:49;;;;;;;11.23;3.83;;;;;;;;;;5032078;28;20170;-57
2022/01/10 01:16:29;;;;;;;12.40;3.22;;;;;;;;;;5044271;28;20057;-54
2022/01/10 01:24:24;;;;;;;6.35;3.15;;;;;;;;;;5020988;28;20054;-61
2022/01/10 01:26:52;;;;;;;10.20;3.60;;;;;;;;;;5025669;28;20053;-60
2022/01/10 01:29:20;;;;;;;10.50;3.65;;;;;;;;;;5024965;28;20052;-59
2022/01/10 01:31:48;;;;;;;10.05;2.85;;;;;;;;;;5045831;28;20111;-56
2022/01/10 01:34:16;;;;;;;10.65;3.42;;;;;;;;;;5042272;28;20048;-61
2022/01/10 01:36:46;;;;;;;8.73;3.17;;;;;;;;;;5028784;28;20113;-54
2022/01/10 01:39:19;;;;;;;9.35;3.47;;;;;;;;;;5026212;28;20049;-57
2022/01/10 01:41:46;;;;;;;7.55;3.20;;;;;;;;;;5009741;28;20054;-62
2022/01/10 01:44:13;;;;;;;12.10;4.13;;;;;;;;;;5009454;28;20065;-54
2022/01/10 01:46:42;;;;;;;14.63;3.63;;;;;;;;;;5041806;28;20061;-59
2022/01/10 01:49:11;;;;;;;7.45;3.05;;;;;;;;;;5048591;28;20049;-60
2022/01/10 01:51:38;;;;;;;12.20;3.38;;;;;;;;;;5042221;28;20061;-61
2022/01/10 01:54:05;;;;;;;10.98;3.67;;;;;;;;;;5029263;28;20053;-59
2022/01/10 01:56:32;;;;;;;12.80;4.55;;;;;;;;;;5026590;28;20057;-62
2022/01/10 01:58:58;;;;;;;15.07;3.60;;;;;;;;;;5032207;28;20100;-60
2022/01/10 02:01:25;;;;;;;8.90;3.22;;;;;;;;;;5036718;28;20076;-61
2022/01/10 02:03:52;;;;;;;12.02;3.85;;;;;;;;;;5044333;28;20136;-61
2022/01/10 02:06:22;;;;;;;11.48;3.38;;;;;;;;;;5025169;28;20118;-61
2022/01/10 02:08:49;;;;;;;9.43;3.67;;;;;;;;;;5028420;28;20057;-62
2022/01/10 02:11:16;;;;;;;11.32;4.28;;;;;;;;;;5024671;28;20196;-58
2022/01/10 02:13:43;;;;;;;7.72;3.33;;;;;;;;;;5016160;28;20054;-61
2022/01/10 02:16:15;;;;;;;8.25;3.38;;;;;;;;;;5029537;28;20072;-59
2022/01/10 02:18:42;;;;;;;13.93;3.17;;;;;;;;;;5047419;28;20045;-62
2022/01/10 02:21:10;;;;;;;12.68;4.18;;;;;;;;;;5040581;28;20062;-60
2022/01/10 02:23:37;;;;;;;6.88;3.20;;;;;;;;;;5028217;28;20111;-58
2022/01/10 02:26:05;;;;;;;13.15;3.88;;;;;;;;;;5026366;28;20079;-62
2022/01/10 02:28:33;;;;;;;14.68;4.25;;;;;;;;;;5042471;28;20044;-61
2022/01/10 02:30:59;;;;;;;14.20;4.60;;;;;;;;;;5047460;28;20175;-61
2022/01/10 02:33:27;;;;;;;10.02;3.53;;;;;;;;;;5024334;28;20054;-62
2022/01/10 02:36:02;;;;;;;16.13;4.05;;;;;;;;;;5027463;28;20080;-61
2022/01/10 02:38:30;;;;;;;10.13;3.75;;;;;;;;;;5039209;28;20057;-60
2022/01/10 02:40:58;;;;;;;9.43;3.80;;;;;;;;;;5028547;28;20057;-58
2022/01/10 02:43:24;;;;;;;12.85;3.90;;;;;;;;;;5022526;28;20157;-60
2022/01/10 02:45:51;;;;;;;8.20;3.22;;;;;;;;;;5028536;28;20074;-59
2022/01/10 02:48:18;;;;;;;11.80;3.80;;;;;;;;;;5023586;28;20132;-55
2022/01/10 02:50:44;;;;;;;9.60;3.25;;;;;;;;;;5027801;28;20056;-60
2022/01/10 02:53:11;;;;;;;9.23;3.72;;;;;;;;;;5032938;28;20072;-61
2022/01/10 02:55:39;;;;;;;7.25;3.30;;;;;;;;;;5048310;28;20148;-61
2022/01/10 02:58:06;;;;;;;9.47;3.33;;;;;;;;;;5042108;28;20075;-60
2022/01/10 03:00:32;;;;;;;11.52;3.67;;;;;;;;;;5042499;28;20325;-61
2022/01/10 03:02:59;;;;;;;12.80;3.58;;;;;;;;;;5022331;28;20140;-58
2022/01/10 03:05:26;;;;;;;12.88;4.13;;;;;;;;;;5026859;28;20069;-60
2022/01/10 03:07:55;;;;;;;10.05;3.10;;;;;;;;;;5023369;28;20053;-58
2022/01/10 03:10:21;;;;;;;12.15;3.67;;;;;;;;;;5027588;28;20057;-57
2022/01/10 03:12:49;;;;;;;13.70;3.60;;;;;;;;;;5020852;28;20476;-55
2022/01/10 03:15:17;;;;;;;10.73;3.87;;;;;;;;;;5021416;28;20125;-57
2022/01/10 03:17:44;;;;;;;10.38;4.00;;;;;;;;;;5027886;28;20317;-56
2022/01/10 03:20:11;;;;;;;11.55;3.53;;;;;;;;;;5024445;28;20128;-61
2022/01/10 03:22:38;;;;;;;10.90;4.07;;;;;;;;;;5029586;28;20150;-57
2022/01/10 03:25:05;;;;;;;16.73;5.03;;;;;;;;;;5025894;28;20065;-61
2022/01/10 03:27:32;;;;;;;14.10;4.43;;;;;;;;;;5029444;28;20060;-60
2022/01/10 03:30:00;;;;;;;10.85;4.28;;;;;;;;;;5024815;28;20054;-57
2022/01/10 03:32:26;;;;;;;7.77;3.30;;;;;;;;;;5026928;28;20081;-56
2022/01/10 03:34:53;;;;;;;9.95;3.72;;;;;;;;;;5022537;28;20077;-58
2022/01/10 03:37:19;;;;;;;14.50;3.45;;;;;;;;;;5026797;28;20152;-59
2022/01/10 03:39:46;;;;;;;10.95;4.00;;;;;;;;;;5022319;28;20060;-55
2022/01/10 03:42:13;;;;;;;15.77;4.28;;;;;;;;;;5026859;28;20057;-55
2022/01/10 03:44:39;;;;;;;10.80;3.67;;;;;;;;;;5019650;28;20052;-56
2022/01/10 03:47:10;;;;;;;8.88;3.72;;;;;;;;;;5006493;28;20057;-58
2022/01/10 03:49:36;;;;;;;9.98;4.13;;;;;;;;;;5005636;28;20123;-60
2022/01/10 03:52:03;;;;;;;11.35;3.72;;;;;;;;;;5025889;28;20081;-60
2022/01/10 03:54:29;;;;;;;14.68;4.22;;;;;;;;;;5023474;28;20057;-58
2022/01/10 03:56:56;;;;;;;8.52;3.55;;;;;;;;;;5024840;28;20145;-61
2022/01/10 03:59:22;;;;;;;8.48;3.80;;;;;;;;;;5025643;28;20160;-61
2022/01/10 04:01:51;;;;;;;10.48;4.57;;;;;;;;;;5020806;28;20072;-60
2022/01/10 04:04:19;;;;;;;10.07;4.57;;;;;;;;;;5009395;28;20402;-61
2022/01/10 04:06:46;;;;;;;9.63;4.35;;;;;;;;;;5033696;28;20052;-60
2022/01/10 04:09:13;;;;;;;13.27;3.90;;;;;;;;;;5028991;28;20118;-56
2022/01/10 04:11:40;;;;;;;10.48;3.80;;;;;;;;;;5021947;28;20136;-56
2022/01/10 04:14:06;;;;;;;10.15;4.47;;;;;;;;;;5040125;28;20052;-57
2022/01/10 04:16:33;;;;;;;11.10;4.10;;;;;;;;;;5030592;28;20054;-52
2022/01/10 04:19:00;;;;;;;11.90;4.45;;;;;;;;;;5009449;28;20081;-57
2022/01/10 04:21:28;;;;;;;9.45;4.22;;;;;;;;;;5006704;28;20049;-56
2022/01/10 04:23:54;;;;;;;9.77;3.90;;;;;;;;;;5010089;28;20061;-56
2022/01/10 04:26:21;;;;;;;7.18;2.88;;;;;;;;;;5011475;28;20338;-50
2022/01/10 04:28:48;;;;;;;10.52;4.15;;;;;;;;;;5028353;28;20053;-59
2022/01/10 04:31:14;;;;;;;10.30;4.50;;;;;;;;;;5025479;28;20045;-57
2022/01/10 04:33:41;;;;;;;12.82;4.95;;;;;;;;;;5045540;28;20075;-55
2022/01/10 04:36:07;;;;;;;16.45;5.00;;;;;;;;;;5042832;28;20072;-56
2022/01/10 04:38:36;;;;;;;12.00;4.72;;;;;;;;;;5008991;28;20457;-59
2022/01/10 04:41:03;;;;;;;9.90;4.32;;;;;;;;;;5027247;28;20064;-55
2022/01/10 04:43:29;;;;;;;14.57;5.07;;;;;;;;;;5025992;28;20064;-58
2022/01/10 04:45:56;;;;;;;12.20;5.68;;;;;;;;;;5029348;28;20103;-56
2022/01/10 04:48:24;;;;;;;13.63;4.03;;;;;;;;;;5038547;28;20140;-56
2022/01/10 04:53:36;;;;;;;10.68;4.40;;;;;;;;;;5023268;28;20051;-60
2022/01/10 04:56:02;;;;;;;10.68;4.28;;;;;;;;;;5011533;28;20049;-60
2022/01/10 04:58:30;;;;;;;13.82;5.43;;;;;;;;;;5027930;28;20049;-55
2022/01/10 05:00:56;;;;;;;11.40;4.95;;;;;;;;;;5046683;28;20061;-57
2022/01/10 05:03:23;;;;;;;11.80;5.22;;;;;;;;;;5040828;28;20106;-58
2022/01/10 05:05:53;;;;;;;11.43;4.93;;;;;;;;;;5045026;28;20055;-56
2022/01/10 05:08:20;;;;;;;15.48;5.72;;;;;;;;;;5034331;28;20052;-62
2022/01/10 05:10:48;;;;;;;11.70;5.40;;;;;;;;;;5036460;28;20053;-59
2022/01/10 05:13:14;;;;;;;15.98;4.88;;;;;;;;;;5037004;28;20448;-61
2022/01/10 05:15:42;;;;;;;19.23;5.88;;;;;;;;;;5028733;28;20052;-55
2022/01/10 05:18:09;;;;;;;13.63;4.90;;;;;;;;;;5024468;28;20060;-57
2022/01/10 05:20:36;;;;;;;12.88;3.95;;;;;;;;;;5028344;28;20041;-58
2022/01/10 05:23:02;;;;;;;14.00;5.05;;;;;;;;;;5024321;28;20080;-59
2022/01/10 05:25:29;;;;;;;13.07;4.68;;;;;;;;;;5028712;28;20049;-57
2022/01/10 05:27:57;;;;;;;12.93;5.30;;;;;;;;;;5028241;28;20088;-60
2022/01/10 05:30:23;;;;;;;14.60;5.57;;;;;;;;;;5024285;28;20498;-59
2022/01/10 05:32:50;;;;;;;14.40;5.53;;;;;;;;;;5028534;28;20080;-58
2022/01/10 05:35:16;;;;;;;13.18;5.20;;;;;;;;;;5024328;28;20053;-59
2022/01/10 05:37:44;;;;;;;8.65;4.15;;;;;;;;;;5027938;28;20134;-57
2022/01/10 05:40:11;;;;;;;14.93;4.55;;;;;;;;;;5034350;28;20084;-60
2022/01/10 05:42:38;;;;;;;8.90;4.07;;;;;;;;;;5044783;28;20061;-60
2022/01/10 05:45:06;;;;;;;15.55;5.63;;;;;;;;;;5032704;28;20059;-58
2022/01/10 05:47:39;;;;;;;16.65;5.22;;;;;;;;;;5028723;28;20049;-59
2022/01/10 05:50:06;;;;;;;21.17;6.15;;;;;;;;;;5031281;28;20140;-57
2022/01/10 05:52:32;;;;;;;14.23;5.97;;;;;;;;;;5044462;28;20104;-56
2022/01/10 05:54:59;;;;;;;13.80;5.53;;;;;;;;;;5033451;28;20161;-59
2022/01/10 05:57:25;;;;;;;19.85;5.78;;;;;;;;;;5008232;28;20057;-53
2022/01/10 05:59:52;;;;;;;13.32;5.10;;;;;;;;;;5012975;28;20060;-54
2022/01/10 06:02:20;;;;;;;13.98;5.40;;;;;;;;;;5020911;28;20060;-58
2022/01/10 06:04:47;;;;;;;13.23;5.35;;;;;;;;;;5017156;28;20115;-56
2022/01/10 06:07:14;;;;;;;10.68;5.50;;;;;;;;;;5018669;28;20094;-53
2022/01/10 06:09:40;;;;;;;15.20;6.28;;;;;;;;;;5015232;28;20076;-55
2022/01/10 06:12:07;;;;;;;16.45;5.68;;;;;;;;;;5015454;28;20063;-61
2022/01/10 06:14:33;;;;;;;14.57;5.13;;;;;;;;;;5020585;28;20073;-59
2022/01/10 06:17:00;;;;;;;11.95;4.88;;;;;;;;;;5017261;28;20061;-60
2022/01/10 06:19:28;;;;;;;11.63;4.75;;;;;;;;;;5022866;28;20045;-60
2022/01/10 06:21:55;;;;;;;15.83;6.07;;;;;;;;;;5021928;28;20139;-61
2022/01/10 06:24:21;;;;;;;15.63;6.03;;;;;;;;;;5023658;28;20041;-58
2022/01/10 06:26:48;;;;;;;12.20;4.82;;;;;;;;;;5021292;28;20121;-59
2022/01/10 06:29:14;;;;;;;11.30;5.13;;;;;;;;;;5023671;28;20049;-57
2022/01/10 06:31:41;;;;;;;13.30;4.53;;;;;;;;;;5020279;28;20054;-55
2022/01/10 06:34:07;;;;;;;10.88;4.38;;;;;;;;;;5019487;28;20076;-56
2022/01/10 06:36:36;;;;;;;14.85;5.35;;;;;;;;;;5019078;28;20056;-54
2022/01/10 06:39:02;;;;;;;15.95;6.05;;;;;;;;;;5037041;28;20140;-57
2022/01/10 06:41:29;;;;;;;13.93;5.20;;;;;;;;;;5035245;28;20140;-58
2022/01/10 06:43:55;;;;;;;12.70;5.07;;;;;;;;;;5022310;28;20144;-56
2022/01/10 06:46:22;;;;;;;10.85;4.53;;;;;;;;;;5016372;28;20060;-58
2022/01/10 06:48:51;;;;;;;17.23;5.00;;;;;;;;;;5022463;28;20077;-55
2022/01/10 06:51:17;;;;;;;14.15;6.13;;;;;;;;;;5021481;28;20060;-58
2022/01/10 06:53:45;;;;;;;12.38;5.82;;;;;;;;;;5036856;28;20053;-52
2022/01/10 06:56:11;;;;;;;16.07;6.60;;;;;;;;;;5027186;28;20085;-56
2022/01/10 06:58:39;;;;;;;21.52;7.40;;;;;;;;;;5023169;28;20053;-56
2022/01/10 07:01:06;;;;;;;27.23;4.97;;;;;;;;;;5023178;28;20054;-54
2022/01/10 07:03:32;;;;;;;20.25;6.65;;;;;;;;;;5014592;28;20084;-56
2022/01/10 07:05:59;;;;;;;13.93;5.53;;;;;;;;;;5025706;28;20076;-56
2022/01/10 07:08:26;;;;;;;18.20;5.60;;;;;;;;;;5015832;28;20068;-56
2022/01/10 07:10:54;;;;;;;19.98;6.93;;;;;;;;;;5022379;28;20102;-52
2022/01/10 07:13:21;;;;;;;14.13;6.20;;;;;;;;;;5020773;28;20050;-57
2022/01/10 07:15:47;;;;;;;21.52;7.68;;;;;;;;;;5025273;28;20057;-58
2022/01/10 07:18:15;;;;;;;14.02;5.50;;;;;;;;;;5017791;28;20060;-56
2022/01/10 07:20:42;;;;;;;13.50;5.33;;;;;;;;;;5023705;28;20049;-55
2022/01/10 07:23:08;;;;;;;19.05;6.90;;;;;;;;;;5018339;28;20053;-55
2022/01/10 07:25:36;;;;;;;16.23;6.40;;;;;;;;;;5022739;28;20142;-54
2022/01/10 07:28:05;;;;;;;17.73;7.57;;;;;;;;;;5017575;28;20100;-60
2022/01/10 07:30:31;;;;;;;16.70;6.63;;;;;;;;;;5022993;28;20077;-56
2022/01/10 07:32:58;;;;;;;10.90;4.95;;;;;;;;;;5017893;28;20057;-56
2022/01/10 07:35:24;;;;;;;17.73;6.32;;;;;;;;;;5021362;28;20084;-52
2022/01/10 07:37:51;;;;;;;14.73;5.43;;;;;;;;;;5023172;28;20144;-55
2022/01/10 07:40:18;;;;;;;15.60;6.65;;;;;;;;;;5016609;28;20061;-55
2022/01/10 07:42:45;;;;;;;22.92;7.13;;;;;;;;;;5023446;28;20060;-60
2022/01/10 07:45:13;;;;;;;14.02;5.85;;;;;;;;;;5017976;28;20053;-53
2022/01/10 07:47:43;;;;;;;21.60;6.63;;;;;;;;;;5023025;28;20053;-54
2022/01/10 07:50:10;;;;;;;17.10;5.93;;;;;;;;;;5016245;28;20056;-56
2022/01/10 07:52:36;;;;;;;10.70;4.93;;;;;;;;;;5024612;28;20141;-56
2022/01/10 07:55:04;;;;;;;13.95;6.45;;;;;;;;;;5017745;28;20063;-55
2022/01/10 07:57:30;;;;;;;13.60;6.55;;;;;;;;;;5021046;28;20135;-52
2022/01/10 07:59:57;;;;;;;15.55;7.13;;;;;;;;;;5015290;28;20246;-54
2022/01/10 08:02:26;;;;;;;15.63;6.65;;;;;;;;;;5023616;28;20084;-54
2022/01/10 08:04:53;;;;;;;;;;;;;;;;;;5017205;28;20052;-55
2022/01/10 08:07:20;;;;;;;14.07;5.47;;;;;;;;;;5023151;28;19924;-58
2022/01/10 08:09:46;;;;;;;11.05;5.00;;;;;;;;;;5016965;28;20077;-55
2022/01/10 08:12:13;;;;;;;15.95;6.82;;;;;;;;;;5022858;28;20103;-52
2022/01/10 08:14:39;;;;;;;21.60;6.53;;;;;;;;;;5016132;28;20079;-53
2022/01/10 08:17:07;;;;;;;16.27;6.78;;;;;;;;;;5020114;28;20046;-55
2022/01/10 08:19:35;;;;;;;22.40;7.38;;;;;;;;;;5022933;28;20140;-55
2022/01/10 08:22:02;;;;;;;21.50;7.63;;;;;;;;;;5014859;28;20049;-55
2022/01/10 08:24:29;;;;;;;13.52;5.72;;;;;;;;;;5023210;28;20072;-52
2022/01/10 08:26:57;;;;;;;18.17;6.80;;;;;;;;;;5017071;28;20058;-55
2022/01/10 08:29:23;;;;;;;16.48;6.45;;;;;;;;;;5021230;28;20061;-56
2022/01/10 08:31:50;;;;;;;11.48;5.38;;;;;;;;;;5023929;28;20148;-54
2022/01/10 08:34:16;;;;;;;15.93;6.57;;;;;;;;;;5024344;28;20053;-57
2022/01/10 08:36:44;;;;;;;17.38;6.65;;;;;;;;;;5018873;28;20091;-57
2022/01/10 08:39:11;;;;;;;28.15;7.47;;;;;;;;;;5019883;28;20159;-56
2022/01/10 08:41:37;;;;;;;16.25;5.72;;;;;;;;;;5033108;28;20053;-57
2022/01/10 08:44:04;;;;;;;8.98;4.60;;;;;;;;;;5021727;28;20065;-54
2022/01/10 08:46:32;;;;;;;17.85;6.85;;;;;;;;;;5015029;28;20049;-53
2022/01/10 08:48:58;;;;;;;14.90;6.38;;;;;;;;;;5022296;28;20141;-53
2022/01/10 08:51:25;;;;;;;23.20;7.60;;;;;;;;;;5033379;28;20107;-55
2022/01/10 08:53:56;;;;;;;13.10;5.53;;;;;;;;;;5023572;28;20147;-53
2022/01/10 08:56:22;;;;;;;12.50;5.50;;;;;;;;;;5018583;28;20065;-56
2022/01/10 08:58:49;;;;;;;18.95;7.18;;;;;;;;;;5021018;28;20077;-57
2022/01/10 09:01:17;;;;;;;16.52;6.72;;;;;;;;;;5022541;28;20107;-56
2022/01/10 09:03:44;;;;;;;14.47;4.70;;;;;;;;;;5015891;28;20422;-55
2022/01/10 09:06:10;;;;;;;18.48;7.43;;;;;;;;;;5022942;28;20335;-55
2022/01/10 09:08:38;;;;;;;24.02;8.57;;;;;;;;;;5014985;28;20050;-56
2022/01/10 09:11:07;;;;;;;12.73;5.57;;;;;;;;;;5021781;28;20053;-53
2022/01/10 09:13:34;;;;;;;10.95;4.32;;;;;;;;;;5014139;28;20072;-56
2022/01/10 09:16:02;;;;;;;15.50;5.45;;;;;;;;;;5037330;28;20061;-51
2022/01/10 09:18:29;;;;;;;17.30;7.80;;;;;;;;;;5016728;28;20060;-55
2022/01/10 09:20:56;;;;;;;18.15;6.18;;;;;;;;;;5021007;28;20085;-52
2022/01/10 09:23:23;;;;;;;15.65;5.82;;;;;;;;;;5014256;28;20136;-52
2022/01/10 09:25:50;;;;;;;17.58;6.13;;;;;;;;;;5021306;28;20057;-54
2022/01/10 09:28:20;;;;;;;19.90;6.30;;;;;;;;;;5015334;28;20140;-56
2022/01/10 09:30:47;;;;;;;27.33;7.43;;;;;;;;;;5022427;28;20053;-53
2022/01/10 09:33:13;;;;;;;14.43;5.60;;;;;;;;;;5015449;28;20127;-53
2022/01/10 09:35:42;;;;;;;19.52;6.90;;;;;;;;;;5020779;28;20049;-59
2022/01/10 09:38:11;;;;;;;13.88;4.70;;;;;;;;;;5018724;28;20082;-56
2022/01/10 09:40:38;;;;;;;19.70;6.75;;;;;;;;;;5021903;28;20140;-53
2022/01/10 09:43:05;;;;;;;20.08;6.80;;;;;;;;;;5015293;28;20057;-57
2022/01/10 09:45:34;;;;;;;19.85;6.65;;;;;;;;;;5022265;28;20503;-56
2022/01/10 09:48:01;;;;;;;13.38;5.50;;;;;;;;;;5020957;28;20057;-52
2022/01/10 09:50:28;;;;;;;10.05;4.55;;;;;;;;;;5015915;28;20092;-57
2022/01/10 09:52:54;;;;;;;15.13;6.38;;;;;;;;;;5037654;28;20077;-57
2022/01/10 09:55:21;;;;;;;21.35;7.07;;;;;;;;;;5020820;28;20060;-55
2022/01/10 09:57:47;;;;;;;18.23;6.20;;;;;;;;;;5024950;28;20065;-56
2022/01/10 10:00:15;;;;;;;12.13;4.32;;;;;;;;;;5019590;28;20131;-56
2022/01/10 10:02:43;;;;;;;17.67;5.20;;;;;;;;;;5024507;28;20096;-58
2022/01/10 10:05:11;;;;;;;21.60;7.43;;;;;;;;;;5021847;28;20075;-54
2022/01/10 10:07:38;;;;;;;14.02;4.75;;;;;;;;;;5026407;28;20145;-55
2022/01/10 10:10:08;;;;;;;15.32;4.85;;;;;;;;;;5020224;28;20076;-57
2022/01/10 10:12:35;;;;;;;14.73;6.18;;;;;;;;;;5027989;28;20050;-57
2022/01/10 10:15:02;;;;;;;11.68;5.20;;;;;;;;;;5022123;28;20147;-58
2022/01/10 10:17:29;;;;;;;16.88;6.57;;;;;;;;;;5026997;28;20053;-51
2022/01/10 10:19:56;;;;;;;11.38;5.38;;;;;;;;;;5023173;28;20048;-55
2022/01/10 10:22:24;;;;;;;11.97;5.43;;;;;;;;;;5030215;28;20116;-56
2022/01/10 10:24:50;;;;;;;13.20;5.07;;;;;;;;;;5022524;28;20054;-52
2022/01/10 10:27:17;;;;;;;24.95;6.68;;;;;;;;;;5025514;28;20045;-51
2022/01/10 10:29:44;;;;;;;16.02;6.10;;;;;;;;;;5026388;28;20049;-56
2022/01/10 10:32:12;;;;;;;15.40;7.07;;;;;;;;;;5019701;28;20046;-54
2022/01/10 10:34:39;;;;;;;18.33;7.97;;;;;;;;;;5024700;28;20057;-57
2022/01/10 10:37:08;;;;;;;22.92;7.80;;;;;;;;;;5019722;28;20081;-54
2022/01/10 10:39:35;;;;;;;14.00;6.43;;;;;;;;;;5024050;28;20152;-56
2022/01/10 10:42:04;;;;;;;16.88;6.70;;;;;;;;;;5020550;28;20045;-51
2022/01/10 10:44:31;;;;;;;21.55;8.18;;;;;;;;;;5026291;28;20061;-57
2022/01/10 10:46:59;;;;;;;23.73;8.57;;;;;;;;;;5021149;28;20131;-56
2022/01/10 10:49:31;;;;;;;12.95;5.72;;;;;;;;;;5027019;28;20139;-52
2022/01/10 10:51:58;;;;;;;22.88;9.52;;;;;;;;;;5019325;28;20053;-58
2022/01/10 10:54:28;;;;;;;24.85;8.27;;;;;;;;;;5025392;28;20487;-53
2022/01/10 10:56:55;;;;;;;14.63;5.65;;;;;;;;;;5020406;28;20063;-57
2022/01/10 10:59:24;;;;;;;20.38;7.60;;;;;;;;;;5024316;28;20136;-55
2022/01/10 11:01:51;;;;;;;14.93;6.45;;;;;;;;;;5022119;28;20388;-52
2022/01/10 11:04:18;;;;;;;10.95;5.22;;;;;;;;;;5026561;28;20053;-52
2022/01/10 11:06:44;;;;;;;20.73;8.57;;;;;;;;;;5022631;28;20159;-59
2022/01/10 11:09:12;;;;;;;33.17;10.95;;;;;;;;;;5028926;28;20116;-55
2022/01/10 11:11:41;;;;;;;25.88;10.70;;;;;;;;;;5020553;28;20542;-53
2022/01/10 11:14:09;;;;;;;16.10;7.68;;;;;;;;;;5028619;28;20163;-55
2022/01/10 11:16:37;;;;;;;28.40;12.93;;;;;;;;;;5026686;28;20053;-56
2022/01/10 11:19:11;;;;;;;24.70;11.57;;;;;;;;;;5027760;28;20064;-55
2022/01/10 11:21:39;;;;;;;23.77;9.43;;;;;;;;;;5028376;28;20148;-57
2022/01/10 11:24:06;;;;;;;24.13;6.95;;;;;;;;;;5022137;28;20048;-58
2022/01/10 11:26:37;;;;;;;22.10;7.63;;;;;;;;;;5027775;28;20077;-58
2022/01/10 11:29:07;;;;;;;22.15;7.03;;;;;;;;;;5022906;28;20489;-57
2022/01/10 11:31:35;;;;;;;16.65;7.35;;;;;;;;;;5028798;28;20103;-54
2022/01/10 11:34:01;;;;;;;;;;;;;;;;;;5022103;28;20140;-57
2022/01/10 11:36:29;;;;;;;20.63;6.93;;;;;;;;;;5028665;28;20066;-59
2022/01/10 11:38:56;;;;;;;23.08;9.45;;;;;;;;;;5021861;28;20049;-58
2022/01/10 11:41:24;;;;;;;21.63;7.72;;;;;;;;;;5027550;28;20072;-54
2022/01/10 11:43:52;;;;;;;19.20;8.83;;;;;;;;;;5024254;28;20060;-59
2022/01/10 11:46:23;;;;;;;17.83;6.95;;;;;;;;;;5028721;28;20231;-56
2022/01/10 11:48:54;;;;;;;17.25;8.13;;;;;;;;;;5023857;28;20263;-55
2022/01/10 11:51:22;;;;;;;22.88;9.63;;;;;;;;;;5029573;28;20135;-55
2022/01/10 11:53:50;;;;;;;22.63;8.88;;;;;;;;;;5020011;28;20123;-53
2022/01/10 11:56:24;;;;;;;18.27;8.13;;;;;;;;;;5028422;28;20098;-52
2022/01/10 11:59:05;;;;;;;20.50;8.27;;;;;;;;;;5020256;28;20361;-54
2022/01/10 12:01:35;;;;;;;18.38;8.82;;;;;;;;;;5010610;28;20052;-53
2022/01/10 12:04:02;;;;;;;22.35;9.18;;;;;;;;;;5020874;28;20168;-53
2022/01/10 12:06:29;;;;;;;18.20;8.43;;;;;;;;;;5025115;28;20063;-52
2022/01/10 12:08:55;;;;;;;22.98;8.93;;;;;;;;;;5021752;28;20210;-54
2022/01/10 12:11:23;;;;;;;22.63;9.07;;;;;;;;;;5025917;28;20056;-52
2022/01/10 12:13:51;;;;;;;22.33;8.40;;;;;;;;;;5024606;28;20051;-54
2022/01/10 12:16:18;;;;;;;19.63;9.50;;;;;;;;;;5026564;28;20149;-55
2022/01/10 12:18:46;;;;;;;17.65;8.25;;;;;;;;;;5026057;28;20299;-58
2022/01/10 12:21:13;;;;;;;20.48;8.18;;;;;;;;;;5020813;28;20055;-54
2022/01/10 12:23:40;;;;;;;17.40;8.32;;;;;;;;;;5026242;28;20052;-55
2022/01/10 12:26:06;;;;;;;18.38;7.78;;;;;;;;;;5017721;28;20069;-55
2022/01/10 12:28:33;;;;;;;26.92;8.73;;;;;;;;;;5025666;28;20508;-59
2022/01/10 12:31:02;;;;;;;16.58;7.05;;;;;;;;;;5019335;28;20565;-53
2022/01/10 12:33:28;;;;;;;;;;;;;;;;;;5027652;28;20114;-55
2022/01/10 12:35:57;;;;;;;18.98;6.82;;;;;;;;;;5019734;28;20009;-53
2022/01/10 12:38:26;;;;;;;16.45;7.40;;;;;;;;;;5027649;28;20156;-54
2022/01/10 12:40:52;;;;;;;18.73;8.13;;;;;;;;;;5022806;28;20068;-51
2022/01/10 12:43:19;;;;;;;24.63;10.00;;;;;;;;;;5024773;28;20155;-53
2022/01/10 12:45:47;;;;;;;19.10;7.50;;;;;;;;;;5023880;28;20052;-56
2022/01/10 12:48:15;;;;;;;23.60;10.23;;;;;;;;;;5026995;28;20084;-51
2022/01/10 12:50:42;;;;;;;26.43;8.87;;;;;;;;;;5021125;28;20067;-56
2022/01/10 12:53:10;;;;;;;23.95;9.40;;;;;;;;;;5025917;28;20053;-58
2022/01/10 12:55:36;;;;;;;28.57;10.90;;;;;;;;;;5018543;28;20172;-52
2022/01/10 12:58:06;;;;;;;27.02;10.60;;;;;;;;;;5026742;28;20056;-52
2022/01/10 13:00:33;;;;;;;24.75;9.88;;;;;;;;;;5025002;28;20055;-56
2022/01/10 13:03:00;;;;;;;33.00;10.65;;;;;;;;;;5023349;28;20056;-53
2022/01/10 13:05:26;;;;;;;27.27;9.75;;;;;;;;;;5025135;28;20049;-52
2022/01/10 13:07:55;;;;;;;24.27;9.63;;;;;;;;;;5019972;28;20063;-53
2022/01/10 13:10:24;;;;;;;;;;;;;;;;;;5026820;28;20052;-57
2022/01/10 13:12:54;;;;;;;13.48;6.28;;;;;;;;;;5020484;28;19924;-52
2022/01/10 13:15:21;;;;;;;15.55;6.68;;;;;;;;;;5028480;28;20053;-58
2022/01/10 13:17:56;;;;;;;33.88;9.20;;;;;;;;;;5024227;28;20134;-55
2022/01/10 13:20:24;;;;;;;17.85;6.80;;;;;;;;;;5026918;28;20144;-56
2022/01/10 13:22:51;;;;;;;17.27;6.82;;;;;;;;;;5020151;28;20603;-52
2022/01/10 13:25:18;;;;;;;19.80;8.77;;;;;;;;;;5025976;28;20057;-56
2022/01/10 13:27:51;;;;;;;25.05;9.55;;;;;;;;;;5019014;28;20060;-55
2022/01/10 13:30:24;;;;;;;19.20;8.55;;;;;;;;;;5028423;28;20052;-53
2022/01/10 13:32:53;;;;;;;22.17;7.38;;;;;;;;;;5023468;28;20055;-51
2022/01/10 13:35:20;;;;;;;16.80;7.43;;;;;;;;;;5029121;28;20053;-56
2022/01/10 13:37:49;;;;;;;20.52;7.82;;;;;;;;;;5026133;28;20045;-54
2022/01/10 13:40:18;;;;;;;18.05;7.70;;;;;;;;;;5029010;28;20048;-54
2022/01/10 13:42:50;;;;;;;25.60;9.27;;;;;;;;;;5020730;28;20068;-56
2022/01/10 13:45:20;;;;;;;23.85;9.20;;;;;;;;;;5029188;28;20053;-56
2022/01/10 13:47:51;;;;;;;17.38;7.93;;;;;;;;;;5024154;28;20067;-56
2022/01/10 13:50:18;;;;;;;11.93;6.18;;;;;;;;;;5029743;28;20088;-55
2022/01/10 13:52:59;;;;;;;16.13;6.72;;;;;;;;;;5026470;28;20077;-56
2022/01/10 13:55:25;;;;;;;26.15;8.38;;;;;;;;;;5027263;28;20056;-53
2022/01/10 13:57:52;;;;;;;17.08;7.20;;;;;;;;;;5029974;28;20045;-56
2022/01/10 14:00:23;;;;;;;18.85;7.40;;;;;;;;;;5030291;28;20056;-51
2022/01/10 14:02:50;;;;;;;16.23;6.72;;;;;;;;;;5028201;28;20063;-55
2022/01/10 14:05:20;;;;;;;22.20;7.32;;;;;;;;;;5024252;28;20065;-51
2022/01/10 14:07:47;;;;;;;17.02;8.50;;;;;;;;;;5030185;28;20049;-56
2022/01/10 14:10:14;;;;;;;18.65;8.35;;;;;;;;;;5023099;28;20064;-54
2022/01/10 14:12:41;;;;;;;22.63;9.35;;;;;;;;;;5031395;28;20052;-55
2022/01/10 14:15:08;;;;;;;25.42;9.00;;;;;;;;;;5007380;28;20067;-54
2022/01/10 14:17:37;;;;;;;23.65;8.02;;;;;;;;;;5027699;28;20089;-56
2022/01/10 14:20:04;;;;;;;25.85;9.00;;;;;;;;;;5023182;28;20053;-57
2022/01/10 14:22:30;;;;;;;22.17;8.38;;;;;;;;;;5029466;28;20143;-52
2022/01/10 14:24:57;;;;;;;21.67;7.90;;;;;;;;;;5024431;28;20057;-56
2022/01/10 14:27:25;;;;;;;20.58;9.25;;;;;;;;;;5028916;28;20053;-54
2022/01/10 14:29:51;;;;;;;15.70;7.78;;;;;;;;;;5022786;28;20045;-56
2022/01/10 14:32:18;;;;;;;22.42;8.52;;;;;;;;;;5030613;28;20114;-52
2022/01/10 14:34:46;;;;;;;19.38;8.50;;;;;;;;;;5040200;28;20148;-57
2022/01/10 14:37:13;;;;;;;17.45;8.07;;;;;;;;;;5029271;28;20129;-53
2022/01/10 14:39:39;;;;;;;21.58;8.93;;;;;;;;;;5022034;28;20137;-60
2022/01/10 14:42:06;;;;;;;24.45;8.90;;;;;;;;;;5027912;28;20049;-58
2022/01/10 14:44:32;;;;;;;25.67;9.48;;;;;;;;;;5050150;28;20060;-55
2022/01/10 14:46:59;;;;;;;20.85;8.05;;;;;;;;;;5023790;28;20061;-55